Time;durP1;ratioP1;P1;durP2;ratioP2;P2;SDS_P1;SDS_P2;PMS_P1;PMS_P2;Temp;Humidity;BMP_temperature;BMP_pressure;BME280_temperature;BME280_humidity;BME280_pressure;Samples;Min_cycle;Max_cycle;Signal;HPM_P1;HPM_P2
2022/01/31 00:02:53;;;;;;;23.30;5.80;;;;;;;;;;6250337;28;20021;-75
2022/01/31 00:05:54;;;;;;;25.25;6.18;;;;;;;;;;6237400;28;20059;-75
2022/01/31 00:08:54;;;;;;;23.77;6.40;;;;;;;;;;6255120;28;20020;-75
2022/01/31 00:12:04;;;;;;;24.92;6.03;;;;;;;;;;6268040;28;20071;-75
2022/01/31 00:15:05;;;;;;;17.08;5.18;;;;;;;;;;6268451;28;20017;-75
2022/01/31 00:18:06;;;;;;;20.23;6.97;;;;;;;;;;6268516;28;20384;-76
2022/01/31 00:21:06;;;;;;;18.48;5.07;;;;;;;;;;6268046;28;20393;-76
2022/01/31 00:24:06;;;;;;;13.63;3.97;;;;;;;;;;6268120;28;20401;-76
2022/01/31 00:27:07;;;;;;;20.10;5.07;;;;;;;;;;6268285;28;20025;-76
2022/01/31 00:30:08;;;;;;;9.50;4.17;;;;;;;;;;6267386;28;20053;-76
2022/01/31 00:33:08;;;;;;;9.93;3.47;;;;;;;;;;6268235;28;20031;-76
2022/01/31 00:36:08;;;;;;;15.65;4.00;;;;;;;;;;6241602;28;20028;-76
2022/01/31 00:39:09;;;;;;;13.23;3.50;;;;;;;;;;6244137;28;20071;-76
2022/01/31 00:42:09;;;;;;;12.93;3.25;;;;;;;;;;6243557;28;20264;-76
2022/01/31 00:45:27;;;;;;;16.67;3.70;;;;;;;;;;6225405;28;20021;-76
2022/01/31 00:48:33;;;;;;;12.75;3.35;;;;;;;;;;6243491;28;20101;-76
2022/01/31 00:51:33;;;;;;;15.68;3.72;;;;;;;;;;6247186;28;20017;-76
2022/01/31 00:54:34;;;;;;;17.55;3.88;;;;;;;;;;6266219;28;20024;-76
2022/01/31 00:57:34;;;;;;;16.52;3.83;;;;;;;;;;6246930;28;20299;-76
2022/01/31 01:00:34;;;;;;;13.73;3.80;;;;;;;;;;6238874;28;20426;-76
2022/01/31 01:03:35;;;;;;;9.48;3.67;;;;;;;;;;6255381;28;20029;-76
2022/01/31 01:06:35;;;;;;;21.03;4.37;;;;;;;;;;6244534;28;20029;-77
2022/01/31 01:09:37;;;;;;;10.05;3.20;;;;;;;;;;6266239;28;20626;-77
2022/01/31 01:12:37;;;;;;;;;;;;;;;;;;6273508;28;20031;-76
2022/01/31 01:15:37;;;;;;;11.73;3.30;;;;;;;;;;6272604;28;20371;-76
2022/01/31 01:18:38;;;;;;;13.30;3.38;;;;;;;;;;6272430;28;20392;-74
2022/01/31 01:21:38;;;;;;;14.10;3.57;;;;;;;;;;6272212;28;20024;-75
2022/01/31 01:24:38;;;;;;;17.90;4.27;;;;;;;;;;6254401;28;20642;-75
2022/01/31 01:27:41;;;;;;;11.65;3.13;;;;;;;;;;6272908;28;20346;-75
2022/01/31 01:30:41;;;;;;;16.90;5.18;;;;;;;;;;6270743;28;20102;-75
2022/01/31 01:33:41;;;;;;;13.65;4.43;;;;;;;;;;6253641;28;20374;-75
2022/01/31 01:36:44;;;;;;;12.93;3.50;;;;;;;;;;6252401;28;20029;-75
2022/01/31 01:39:45;;;;;;;16.15;3.70;;;;;;;;;;6252290;28;20504;-75
2022/01/31 01:42:46;;;;;;;20.02;4.53;;;;;;;;;;6252102;28;20025;-75
2022/01/31 01:45:49;;;;;;;17.90;3.60;;;;;;;;;;6269974;28;20083;-75
2022/01/31 01:48:50;;;;;;;19.98;4.53;;;;;;;;;;6252343;28;20274;-75
2022/01/31 01:51:50;;;;;;;8.10;3.20;;;;;;;;;;6269956;28;20029;-75
2022/01/31 01:54:50;;;;;;;17.17;3.92;;;;;;;;;;6268617;28;20029;-75
2022/01/31 01:57:50;;;;;;;11.32;4.57;;;;;;;;;;6246650;28;20025;-75
2022/01/31 02:01:02;;;;;;;15.25;3.60;;;;;;;;;;6245075;28;20507;-75
2022/01/31 02:04:02;;;;;;;9.13;2.65;;;;;;;;;;6227826;28;20119;-76
2022/01/31 02:07:03;;;;;;;19.73;4.00;;;;;;;;;;6249245;28;20021;-75
2022/01/31 02:10:06;;;;;;;17.52;3.80;;;;;;;;;;6249103;28;20029;-75
2022/01/31 02:13:06;;;;;;;11.43;3.72;;;;;;;;;;6244390;28;20538;-75
2022/01/31 02:16:08;;;;;;;17.45;2.75;;;;;;;;;;6244454;28;20029;-75
2022/01/31 02:19:13;;;;;;;16.03;2.20;;;;;;;;;;6227152;28;20057;-75
2022/01/31 02:22:13;;;;;;;16.17;3.40;;;;;;;;;;6226932;28;20315;-75
2022/01/31 02:25:14;;;;;;;8.33;2.67;;;;;;;;;;6227112;28;20033;-75
2022/01/31 02:28:14;;;;;;;8.95;2.90;;;;;;;;;;6226875;28;20601;-76
2022/01/31 02:31:14;;;;;;;18.83;3.92;;;;;;;;;;6209981;28;1074404;-75
2022/01/31 02:34:16;;;;;;;9.10;2.23;;;;;;;;;;6257493;28;20022;-75
2022/01/31 02:37:16;;;;;;;12.83;2.40;;;;;;;;;;6267277;28;20260;-75
2022/01/31 02:40:17;;;;;;;14.80;3.67;;;;;;;;;;6270501;28;20343;-75
2022/01/31 02:43:23;;;;;;;14.73;3.03;;;;;;;;;;6252099;28;20020;-75
2022/01/31 02:46:26;;;;;;;11.73;3.42;;;;;;;;;;6239303;28;20292;-75
2022/01/31 02:49:33;;;;;;;10.73;2.88;;;;;;;;;;6245241;28;20044;-75
2022/01/31 02:52:36;;;;;;;16.30;4.15;;;;;;;;;;6256527;28;20005;-75
2022/01/31 02:55:37;;;;;;;11.75;3.35;;;;;;;;;;6265076;28;20025;-75
2022/01/31 02:58:37;;;;;;;15.00;3.00;;;;;;;;;;6245649;28;20024;-75
2022/01/31 03:01:38;;;;;;;13.88;3.28;;;;;;;;;;6267334;28;20025;-75
2022/01/31 03:04:38;;;;;;;11.35;3.75;;;;;;;;;;6247242;28;20021;-75
2022/01/31 03:07:38;;;;;;;19.63;3.40;;;;;;;;;;6251128;28;20171;-75
2022/01/31 03:10:38;;;;;;;9.23;2.50;;;;;;;;;;6250222;28;20388;-75
2022/01/31 03:13:38;;;;;;;11.90;3.13;;;;;;;;;;6242645;28;20074;-75
2022/01/31 03:16:41;;;;;;;11.10;4.00;;;;;;;;;;6245112;28;20016;-75
2022/01/31 03:19:42;;;;;;;;;;;;;;;;;;6258106;28;20256;-75
2022/01/31 03:22:42;;;;;;;11.57;2.92;;;;;;;;;;6263326;28;19905;-75
2022/01/31 03:25:42;;;;;;;11.00;2.45;;;;;;;;;;6268244;28;20440;-75
2022/01/31 03:28:43;;;;;;;11.03;3.30;;;;;;;;;;6269225;28;20017;-75
2022/01/31 03:31:43;;;;;;;17.13;2.90;;;;;;;;;;6269351;28;20324;-75
2022/01/31 03:34:43;;;;;;;14.17;3.53;;;;;;;;;;6268868;28;20424;-75
2022/01/31 03:37:44;;;;;;;9.07;2.73;;;;;;;;;;6265109;28;20730;-75
2022/01/31 03:40:44;;;;;;;10.55;3.00;;;;;;;;;;6243802;28;20280;-75
2022/01/31 03:43:44;;;;;;;13.20;3.30;;;;;;;;;;6243871;28;20060;-76
2022/01/31 03:46:44;;;;;;;16.43;4.00;;;;;;;;;;6244413;28;20740;-76
2022/01/31 03:49:45;;;;;;;10.35;2.88;;;;;;;;;;6244225;28;20620;-76
2022/01/31 03:52:45;;;;;;;12.23;2.75;;;;;;;;;;6237920;28;20017;-77
2022/01/31 03:55:45;;;;;;;12.52;5.03;;;;;;;;;;6262447;28;20040;-77
2022/01/31 03:58:46;;;;;;;12.23;2.58;;;;;;;;;;6225985;28;20017;-76
2022/01/31 04:01:46;;;;;;;4.18;2.10;;;;;;;;;;6266452;28;20339;-76
2022/01/31 04:04:46;;;;;;;11.13;2.92;;;;;;;;;;6244300;28;20053;-76
2022/01/31 04:07:46;;;;;;;25.98;5.97;;;;;;;;;;6244961;28;20100;-74
2022/01/31 04:10:46;;;;;;;19.07;5.60;;;;;;;;;;6268544;28;20028;-75
2022/01/31 04:13:47;;;;;;;16.35;2.42;;;;;;;;;;6267884;28;20260;-75
2022/01/31 04:16:47;;;;;;;12.63;2.97;;;;;;;;;;6267239;28;20443;-75
2022/01/31 04:19:48;;;;;;;12.60;3.10;;;;;;;;;;6267906;28;20290;-74
2022/01/31 04:22:55;;;;;;;7.78;3.40;;;;;;;;;;6268045;28;20079;-74
2022/01/31 04:26:02;;;;;;;14.25;3.20;;;;;;;;;;6267695;28;20114;-74
2022/01/31 04:29:08;;;;;;;16.67;4.07;;;;;;;;;;6249758;28;20388;-74
2022/01/31 04:32:08;;;;;;;15.20;4.85;;;;;;;;;;6267636;28;20024;-74
2022/01/31 04:35:09;;;;;;;10.17;2.53;;;;;;;;;;6268124;28;20048;-74
2022/01/31 04:38:09;;;;;;;14.90;4.23;;;;;;;;;;6268563;28;20263;-74
2022/01/31 04:41:09;;;;;;;23.00;4.93;;;;;;;;;;6268075;28;20263;-74
2022/01/31 04:44:10;;;;;;;10.45;3.10;;;;;;;;;;6267386;28;20281;-74
2022/01/31 04:47:11;;;;;;;13.77;3.97;;;;;;;;;;6268187;28;20368;-74
2022/01/31 04:50:11;;;;;;;9.15;4.25;;;;;;;;;;6267476;28;20028;-74
2022/01/31 04:53:12;;;;;;;13.85;5.90;;;;;;;;;;6266346;28;20524;-74
2022/01/31 04:56:12;;;;;;;33.23;6.10;;;;;;;;;;6267345;28;20493;-74
2022/01/31 04:59:12;;;;;;;9.35;2.83;;;;;;;;;;6266982;28;20032;-74
2022/01/31 05:02:13;;;;;;;9.82;3.38;;;;;;;;;;6244727;28;20076;-73
2022/01/31 05:05:13;;;;;;;11.97;3.87;;;;;;;;;;6249733;28;20021;-73
2022/01/31 05:08:13;;;;;;;18.73;9.00;;;;;;;;;;6250105;28;20274;-73
2022/01/31 05:11:13;;;;;;;27.25;7.00;;;;;;;;;;6267547;28;20498;-73
2022/01/31 05:14:16;;;;;;;13.18;4.70;;;;;;;;;;6249311;28;20085;-74
2022/01/31 05:17:16;;;;;;;;;;;;;;;;;;6268637;28;20025;-74
2022/01/31 05:20:16;;;;;;;13.88;4.90;;;;;;;;;;6257865;28;19916;-73
2022/01/31 05:23:16;;;;;;;9.20;3.60;;;;;;;;;;6248238;28;20104;-73
2022/01/31 05:26:17;;;;;;;25.13;4.60;;;;;;;;;;6254607;28;20294;-73
2022/01/31 05:29:17;;;;;;;12.98;4.25;;;;;;;;;;6243869;28;20620;-73
2022/01/31 05:32:17;;;;;;;19.33;5.47;;;;;;;;;;6257759;28;20017;-73
2022/01/31 05:35:18;;;;;;;21.15;5.60;;;;;;;;;;6247663;28;20024;-73
2022/01/31 05:38:18;;;;;;;14.67;5.07;;;;;;;;;;6256746;28;20017;-73
2022/01/31 05:41:19;;;;;;;10.93;5.00;;;;;;;;;;6252814;28;20770;-73
2022/01/31 05:44:20;;;;;;;20.17;4.47;;;;;;;;;;6261582;28;20021;-73
2022/01/31 05:47:20;;;;;;;14.32;5.85;;;;;;;;;;6256715;28;20393;-73
2022/01/31 05:50:20;;;;;;;12.52;4.65;;;;;;;;;;6253992;28;20108;-73
2022/01/31 05:53:22;;;;;;;21.15;7.25;;;;;;;;;;6261410;28;20443;-72
2022/01/31 05:56:22;;;;;;;35.00;8.73;;;;;;;;;;6260633;28;20100;-72
2022/01/31 05:59:23;;;;;;;14.95;7.43;;;;;;;;;;6233202;28;20112;-72
2022/01/31 06:02:23;;;;;;;23.55;4.72;;;;;;;;;;6247240;28;20479;-72
2022/01/31 06:05:23;;;;;;;13.50;5.80;;;;;;;;;;6254963;28;20017;-72
2022/01/31 06:08:23;;;;;;;16.55;3.83;;;;;;;;;;6258748;28;20283;-72
2022/01/31 06:11:25;;;;;;;8.10;3.97;;;;;;;;;;6261995;28;20017;-72
2022/01/31 06:14:25;;;;;;;17.48;6.80;;;;;;;;;;6263757;28;20604;-72
2022/01/31 06:17:25;;;;;;;34.13;7.67;;;;;;;;;;6262618;28;20020;-72
2022/01/31 06:20:26;;;;;;;26.30;8.15;;;;;;;;;;6236680;28;20279;-73
2022/01/31 06:23:26;;;;;;;29.92;10.35;;;;;;;;;;6258719;28;20275;-73
2022/01/31 06:26:28;;;;;;;39.88;14.15;;;;;;;;;;6254340;28;20378;-73
2022/01/31 06:29:28;;;;;;;34.25;10.13;;;;;;;;;;6264205;28;20041;-73
2022/01/31 06:32:29;;;;;;;29.27;7.38;;;;;;;;;;6253180;28;20021;-73
2022/01/31 06:35:29;;;;;;;28.63;10.00;;;;;;;;;;6267204;28;20021;-73
2022/01/31 06:38:29;;;;;;;20.25;6.22;;;;;;;;;;6247482;28;20096;-73
2022/01/31 06:41:30;;;;;;;35.53;10.70;;;;;;;;;;6244127;28;20035;-73
2022/01/31 06:44:31;;;;;;;33.28;13.27;;;;;;;;;;6236448;28;20481;-73
2022/01/31 06:47:32;;;;;;;21.40;8.43;;;;;;;;;;6257926;28;20139;-73
2022/01/31 06:50:32;;;;;;;29.10;11.75;;;;;;;;;;6259559;28;20013;-72
2022/01/31 06:53:34;;;;;;;32.92;10.38;;;;;;;;;;6255580;28;20100;-72
2022/01/31 06:56:38;;;;;;;;;;;;;;;;;;6235796;28;20025;-72
2022/01/31 06:59:39;;;;;;;48.83;9.10;;;;;;;;;;6254569;28;19912;-72
2022/01/31 07:02:39;;;;;;;27.07;9.47;;;;;;;;;;6257694;28;20052;-72
2022/01/31 07:05:43;;;;;;;26.20;10.20;;;;;;;;;;6251099;28;20288;-73
2022/01/31 07:08:43;;;;;;;25.50;8.93;;;;;;;;;;6243506;28;20009;-73
2022/01/31 07:11:44;;;;;;;24.83;10.83;;;;;;;;;;6259810;28;20488;-73
2022/01/31 07:14:44;;;;;;;40.70;11.77;;;;;;;;;;6265476;28;20301;-73
2022/01/31 07:17:47;;;;;;;21.30;8.25;;;;;;;;;;6249791;28;20018;-73
2022/01/31 07:20:51;;;;;;;20.75;7.40;;;;;;;;;;6254027;28;20055;-73
2022/01/31 07:24:04;;;;;;;22.65;9.55;;;;;;;;;;6253638;28;20031;-73
2022/01/31 07:27:05;;;;;;;21.67;8.48;;;;;;;;;;6255188;28;20382;-73
2022/01/31 07:30:05;;;;;;;20.30;6.55;;;;;;;;;;6254736;28;20073;-73
2022/01/31 07:33:09;;;;;;;22.42;8.23;;;;;;;;;;6261062;28;20017;-73
2022/01/31 07:36:09;;;;;;;31.70;11.77;;;;;;;;;;6254486;28;20022;-73
2022/01/31 07:39:10;;;;;;;27.83;8.10;;;;;;;;;;6235790;28;20021;-73
2022/01/31 07:42:10;;;;;;;29.73;11.27;;;;;;;;;;6247591;28;20631;-73
2022/01/31 07:45:10;;;;;;;15.23;6.60;;;;;;;;;;6245120;28;20408;-73
2022/01/31 07:48:10;;;;;;;24.42;8.75;;;;;;;;;;6245436;28;20110;-73
2022/01/31 07:51:11;;;;;;;28.73;9.18;;;;;;;;;;6246638;28;20048;-73
2022/01/31 07:54:11;;;;;;;33.95;9.70;;;;;;;;;;6262285;28;20283;-73
2022/01/31 07:57:11;;;;;;;14.43;6.75;;;;;;;;;;6252323;28;20092;-73
2022/01/31 08:00:12;;;;;;;21.30;9.15;;;;;;;;;;6237730;28;20480;-73
2022/01/31 08:03:13;;;;;;;24.63;8.40;;;;;;;;;;6255464;28;20028;-74
2022/01/31 08:06:13;;;;;;;24.13;9.43;;;;;;;;;;6258601;28;20013;-74
2022/01/31 08:09:13;;;;;;;25.08;10.85;;;;;;;;;;6254996;28;20017;-74
2022/01/31 08:12:14;;;;;;;36.87;13.60;;;;;;;;;;6245781;28;20009;-73
2022/01/31 08:15:23;;;;;;;41.83;15.63;;;;;;;;;;6252241;28;20271;-73
2022/01/31 08:18:23;;;;;;;34.08;14.77;;;;;;;;;;6267431;28;20473;-73
2022/01/31 08:21:26;;;;;;;32.08;14.25;;;;;;;;;;6250964;28;20021;-73
2022/01/31 08:24:26;;;;;;;43.72;16.67;;;;;;;;;;6240605;28;20337;-73
2022/01/31 08:27:26;;;;;;;33.90;12.15;;;;;;;;;;6259660;28;20028;-73
2022/01/31 08:30:37;;;;;;;28.83;12.23;;;;;;;;;;6254192;28;20045;-73
2022/01/31 08:33:43;;;;;;;31.95;12.25;;;;;;;;;;6246985;28;20272;-74
2022/01/31 08:36:43;;;;;;;21.58;9.80;;;;;;;;;;6234603;28;20022;-74
2022/01/31 08:39:44;;;;;;;33.15;11.35;;;;;;;;;;6243046;28;20071;-74
2022/01/31 08:42:44;;;;;;;18.50;8.60;;;;;;;;;;6241408;28;20051;-74
2022/01/31 08:45:45;;;;;;;44.42;14.65;;;;;;;;;;6241008;28;20286;-74
2022/01/31 08:48:45;;;;;;;19.58;10.45;;;;;;;;;;6240153;28;20499;-74
2022/01/31 08:51:45;;;;;;;31.33;8.83;;;;;;;;;;6240849;28;20298;-74
2022/01/31 08:54:45;;;;;;;28.38;8.68;;;;;;;;;;6263255;28;20602;-75
2022/01/31 08:57:46;;;;;;;17.30;7.25;;;;;;;;;;6243028;28;20072;-75
2022/01/31 09:00:49;;;;;;;33.43;9.90;;;;;;;;;;6255645;28;20017;-75
2022/01/31 09:06:54;;;;;;;35.63;10.75;;;;;;;;;;6263786;28;20024;-76
2022/01/31 09:09:54;;;;;;;33.50;10.07;;;;;;;;;;6267779;28;20010;-76
2022/01/31 09:12:54;;;;;;;35.05;11.05;;;;;;;;;;6266880;28;20451;-76
2022/01/31 09:15:54;;;;;;;25.23;8.47;;;;;;;;;;6266809;28;20021;-76
2022/01/31 09:18:54;;;;;;;27.73;9.05;;;;;;;;;;6266905;28;20414;-76
2022/01/31 09:21:55;;;;;;;23.85;7.72;;;;;;;;;;6249007;28;20493;-76
2022/01/31 09:24:55;;;;;;;25.10;11.60;;;;;;;;;;6253269;28;20465;-76
2022/01/31 09:27:56;;;;;;;36.83;11.67;;;;;;;;;;6268622;28;20031;-76
2022/01/31 09:30:56;;;;;;;33.67;13.20;;;;;;;;;;6245536;28;20288;-76
2022/01/31 09:33:56;;;;;;;21.35;9.20;;;;;;;;;;6246732;28;20379;-76
2022/01/31 09:37:00;;;;;;;33.50;12.65;;;;;;;;;;6246961;28;20032;-76
2022/01/31 09:40:04;;;;;;;21.83;8.73;;;;;;;;;;6247026;28;20477;-76
2022/01/31 09:49:27;;;;;;;30.38;12.60;;;;;;;;;;6246627;28;20034;-76
2022/01/31 09:52:27;;;;;;;42.43;15.40;;;;;;;;;;6244634;28;20026;-76
2022/01/31 09:55:27;;;;;;;39.30;13.60;;;;;;;;;;6241252;28;20273;-75
2022/01/31 09:58:29;;;;;;;38.20;12.53;;;;;;;;;;6231397;28;20259;-75
2022/01/31 10:01:31;;;;;;;38.85;14.02;;;;;;;;;;6236310;28;20271;-75
2022/01/31 10:04:35;;;;;;;25.80;12.60;;;;;;;;;;6235094;28;20037;-75
2022/01/31 10:07:44;;;;;;;29.55;9.80;;;;;;;;;;6227469;28;20037;-76
2022/01/31 10:10:46;;;;;;;33.22;13.30;;;;;;;;;;6245511;28;20049;-76
2022/01/31 10:17:07;;;;;;;32.22;12.63;;;;;;;;;;6242858;28;20037;-76
2022/01/31 10:20:07;;;;;;;;;;;;;;;;;;6245183;28;20108;-76
2022/01/31 10:23:08;;;;;;;25.40;9.77;;;;;;;;;;6244719;28;19935;-76
2022/01/31 10:26:25;;;;;;;27.37;9.07;;;;;;;;;;6243802;28;20393;-76
2022/01/31 10:29:25;;;;;;;42.80;18.45;;;;;;;;;;6243930;28;20056;-76
2022/01/31 10:32:29;;;;;;;40.47;17.45;;;;;;;;;;6252502;28;20025;-76
2022/01/31 10:35:34;;;;;;;72.88;24.67;;;;;;;;;;6251835;28;20085;-76
2022/01/31 10:38:38;;;;;;;48.95;15.63;;;;;;;;;;6257704;28;20087;-76
2022/01/31 10:45:48;;;;;;;37.72;15.15;;;;;;;;;;6258669;28;20387;-76
2022/01/31 10:55:12;;;;;;;58.22;19.90;;;;;;;;;;6252642;28;20090;-76
2022/01/31 10:58:14;;;;;;;52.22;20.77;;;;;;;;;;6253581;28;20021;-76
2022/01/31 11:01:16;;;;;;;53.80;17.73;;;;;;;;;;6248387;28;20036;-76
2022/01/31 11:04:16;;;;;;;30.50;16.95;;;;;;;;;;6264406;28;20147;-76
2022/01/31 11:07:28;;;;;;;55.30;19.63;;;;;;;;;;6269589;28;20021;-76
2022/01/31 11:10:28;;;;;;;60.45;23.52;;;;;;;;;;6269663;28;20024;-76
2022/01/31 11:13:31;;;;;;;46.45;19.50;;;;;;;;;;6267648;28;20013;-76
2022/01/31 11:16:31;;;;;;;50.63;18.13;;;;;;;;;;6260152;28;20037;-76
2022/01/31 11:19:33;;;;;;;38.78;11.38;;;;;;;;;;6262426;28;20427;-76
2022/01/31 11:22:37;;;;;;;;;;;;;;;;;;6251256;28;20021;-75
2022/01/31 11:25:38;;;;;;;34.40;13.23;;;;;;;;;;6264979;28;19966;-75
2022/01/31 11:28:40;;;;;;;38.63;14.57;;;;;;;;;;6263367;28;20052;-75
2022/01/31 11:31:41;;;;;;;31.38;12.27;;;;;;;;;;6268831;28;20370;-76
2022/01/31 11:34:42;;;;;;;33.63;13.20;;;;;;;;;;6268802;28;20029;-76
2022/01/31 11:37:42;;;;;;;41.92;12.50;;;;;;;;;;6268892;28;20020;-76
2022/01/31 11:40:43;;;;;;;36.57;12.87;;;;;;;;;;6269410;28;20024;-76
2022/01/31 11:43:52;;;;;;;34.20;10.07;;;;;;;;;;6250394;28;20298;-76
2022/01/31 11:46:55;;;;;;;36.95;13.38;;;;;;;;;;6268312;28;20104;-76
2022/01/31 11:49:56;;;;;;;43.33;16.52;;;;;;;;;;6268640;28;20048;-76
2022/01/31 11:52:58;;;;;;;36.90;13.83;;;;;;;;;;6267044;28;20541;-76
2022/01/31 11:56:05;;;;;;;44.22;14.73;;;;;;;;;;6243985;28;20512;-76
2022/01/31 11:59:05;;;;;;;36.78;15.25;;;;;;;;;;6262708;28;20032;-76
2022/01/31 12:02:06;;;;;;;21.80;7.73;;;;;;;;;;6255628;28;20191;-76
2022/01/31 12:05:08;;;;;;;37.35;16.20;;;;;;;;;;6237716;28;20279;-76
2022/01/31 12:08:09;;;;;;;47.38;15.77;;;;;;;;;;6244950;28;20020;-76
2022/01/31 12:11:13;;;;;;;35.63;12.63;;;;;;;;;;6249130;28;20024;-76
2022/01/31 12:14:23;;;;;;;24.25;9.65;;;;;;;;;;6252881;28;20037;-76
2022/01/31 12:17:37;;;;;;;44.65;14.60;;;;;;;;;;6254486;28;20025;-76
2022/01/31 12:24:20;;;;;;;31.30;11.85;;;;;;;;;;6266780;28;20029;-76
2022/01/31 12:27:27;;;;;;;38.03;11.10;;;;;;;;;;6266966;28;20448;-76
2022/01/31 12:30:29;;;;;;;33.45;12.07;;;;;;;;;;6265450;28;20041;-76
2022/01/31 12:33:39;;;;;;;24.88;8.68;;;;;;;;;;6236229;28;20033;-76
2022/01/31 12:36:39;;;;;;;38.08;13.55;;;;;;;;;;6241760;28;20031;-76
2022/01/31 12:39:43;;;;;;;47.70;14.35;;;;;;;;;;6255720;28;20028;-76
2022/01/31 12:42:48;;;;;;;31.08;11.27;;;;;;;;;;6251919;28;20396;-76
2022/01/31 12:45:48;;;;;;;45.08;12.95;;;;;;;;;;6247136;28;20064;-76
2022/01/31 12:49:10;;;;;;;41.90;14.60;;;;;;;;;;6244923;28;20083;-76
2022/01/31 12:52:11;;;;;;;20.83;6.88;;;;;;;;;;6257289;28;20496;-76
2022/01/31 12:55:11;;;;;;;34.92;10.50;;;;;;;;;;6257743;28;20104;-76
2022/01/31 12:58:12;;;;;;;25.38;9.40;;;;;;;;;;6249130;28;20152;-76
2022/01/31 13:01:13;;;;;;;28.80;9.60;;;;;;;;;;6267819;28;20033;-76
2022/01/31 13:04:16;;;;;;;30.23;11.35;;;;;;;;;;6253568;28;20294;-76
2022/01/31 13:07:18;;;;;;;26.13;8.77;;;;;;;;;;6247360;28;20571;-76
2022/01/31 13:10:18;;;;;;;29.25;10.20;;;;;;;;;;6268038;28;20070;-76
2022/01/31 13:13:31;;;;;;;43.33;18.50;;;;;;;;;;6258164;28;20497;-76
2022/01/31 13:16:39;;;;;;;41.50;15.63;;;;;;;;;;6259854;28;20666;-76
2022/01/31 13:19:41;;;;;;;47.35;13.95;;;;;;;;;;6240712;28;20429;-76
2022/01/31 13:22:41;;;;;;;25.05;6.22;;;;;;;;;;6257389;28;20459;-76
2022/01/31 13:25:42;;;;;;;38.97;11.63;;;;;;;;;;6244426;28;20038;-76
2022/01/31 13:28:48;;;;;;;48.83;17.50;;;;;;;;;;6268415;28;20318;-76
2022/01/31 13:31:48;;;;;;;55.28;22.60;;;;;;;;;;6271106;28;20287;-76
2022/01/31 13:34:50;;;;;;;41.13;12.00;;;;;;;;;;6271433;28;20491;-76
2022/01/31 13:37:58;;;;;;;49.38;16.10;;;;;;;;;;6271268;28;20328;-76
2022/01/31 13:40:58;;;;;;;36.47;13.75;;;;;;;;;;6270315;28;20455;-76
2022/01/31 13:44:03;;;;;;;44.72;13.98;;;;;;;;;;6265540;28;20032;-76
2022/01/31 13:47:04;;;;;;;45.30;16.75;;;;;;;;;;6255119;28;20020;-76
2022/01/31 13:50:14;;;;;;;47.92;14.93;;;;;;;;;;6267533;28;20481;-76
2022/01/31 13:53:16;;;;;;;106.40;40.88;;;;;;;;;;6267836;28;20025;-76
2022/01/31 13:56:16;;;;;;;70.35;26.83;;;;;;;;;;6259803;28;20020;-76
2022/01/31 13:59:17;;;;;;;45.67;14.18;;;;;;;;;;6256359;28;20392;-76
2022/01/31 14:02:18;;;;;;;71.90;23.38;;;;;;;;;;6249969;28;20512;-76
2022/01/31 14:05:19;;;;;;;118.55;42.15;;;;;;;;;;6270444;28;20048;-76
2022/01/31 14:08:27;;;;;;;141.70;56.33;;;;;;;;;;6263747;28;20415;-76
2022/01/31 14:11:28;;;;;;;114.90;50.03;;;;;;;;;;6246035;28;20427;-76
2022/01/31 14:14:28;;;;;;;59.40;27.92;;;;;;;;;;6250959;28;20140;-76
2022/01/31 14:17:28;;;;;;;98.50;34.13;;;;;;;;;;6257374;28;20534;-76
2022/01/31 14:20:31;;;;;;;78.37;28.53;;;;;;;;;;6260753;28;20275;-76
2022/01/31 14:23:36;;;;;;;153.70;58.20;;;;;;;;;;6261400;28;20271;-76
2022/01/31 14:26:37;;;;;;;158.00;64.13;;;;;;;;;;6260061;28;20021;-76
2022/01/31 14:29:37;;;;;;;136.02;52.25;;;;;;;;;;6254770;28;20049;-76
2022/01/31 14:32:37;;;;;;;127.63;46.75;;;;;;;;;;6251711;28;20079;-76
2022/01/31 14:35:38;;;;;;;83.00;35.37;;;;;;;;;;6251615;28;20031;-76
2022/01/31 14:38:46;;;;;;;78.28;29.23;;;;;;;;;;6251482;28;20250;-76
2022/01/31 14:48:09;;;;;;;214.55;82.55;;;;;;;;;;6245352;28;20041;-76
2022/01/31 14:51:26;;;;;;;135.85;55.00;;;;;;;;;;6265167;28;20100;-76
2022/01/31 14:54:26;;;;;;;112.53;45.92;;;;;;;;;;6268113;28;20493;-76
2022/01/31 14:57:26;;;;;;;92.23;39.97;;;;;;;;;;6231725;28;20024;-76
2022/01/31 15:00:27;;;;;;;58.05;21.90;;;;;;;;;;6239899;28;20268;-76
2022/01/31 15:03:27;;;;;;;56.33;18.67;;;;;;;;;;6263730;28;20678;-76
2022/01/31 15:06:28;;;;;;;58.03;24.30;;;;;;;;;;6245203;28;20025;-76
2022/01/31 15:09:28;;;;;;;121.45;59.03;;;;;;;;;;6252425;28;20288;-76
2022/01/31 15:12:28;;;;;;;181.53;76.67;;;;;;;;;;6258752;28;20027;-76
2022/01/31 15:15:28;;;;;;;183.38;77.90;;;;;;;;;;6267438;28;20318;-76
2022/01/31 15:18:29;;;;;;;203.18;86.40;;;;;;;;;;6254976;28;20025;-76
2022/01/31 15:21:33;;;;;;;201.33;80.67;;;;;;;;;;6269683;28;20469;-76
2022/01/31 15:24:34;;;;;;;177.15;70.72;;;;;;;;;;6265024;28;20271;-76
2022/01/31 15:27:35;;;;;;;127.53;54.30;;;;;;;;;;6249789;28;20024;-76
2022/01/31 15:30:35;;;;;;;91.35;36.53;;;;;;;;;;6248244;28;20081;-76
2022/01/31 15:33:36;;;;;;;80.10;33.03;;;;;;;;;;6244723;28;20018;-76
2022/01/31 15:36:36;;;;;;;95.07;41.58;;;;;;;;;;6260948;28;20025;-76
2022/01/31 15:39:36;;;;;;;102.07;41.75;;;;;;;;;;6260755;28;20029;-76
2022/01/31 15:42:37;;;;;;;106.38;41.28;;;;;;;;;;6246220;28;20937;-76
2022/01/31 15:45:37;;;;;;;103.97;43.88;;;;;;;;;;6244189;28;20021;-76
2022/01/31 15:48:37;;;;;;;98.55;40.92;;;;;;;;;;6248549;28;20021;-76
2022/01/31 15:51:37;;;;;;;100.75;41.53;;;;;;;;;;6251646;28;20373;-76
2022/01/31 15:54:38;;;;;;;92.97;38.90;;;;;;;;;;6234549;28;20021;-76
2022/01/31 15:57:39;;;;;;;83.30;37.20;;;;;;;;;;6249934;28;20283;-76
2022/01/31 16:00:43;;;;;;;94.13;42.80;;;;;;;;;;6245674;28;20353;-76
2022/01/31 16:03:43;;;;;;;76.35;35.97;;;;;;;;;;6228757;28;20124;-76
2022/01/31 16:06:44;;;;;;;93.97;34.53;;;;;;;;;;6250526;28;20021;-76
2022/01/31 16:09:44;;;;;;;92.63;43.20;;;;;;;;;;6266675;28;20021;-76
2022/01/31 16:12:45;;;;;;;105.20;44.20;;;;;;;;;;6266763;28;20244;-76
2022/01/31 16:15:46;;;;;;;114.50;51.70;;;;;;;;;;6268093;28;20032;-76
2022/01/31 16:18:46;;;;;;;115.47;49.65;;;;;;;;;;6267075;28;20493;-76
2022/01/31 16:21:46;;;;;;;136.40;54.92;;;;;;;;;;6241202;28;20017;-76
2022/01/31 16:24:46;;;;;;;134.57;55.83;;;;;;;;;;6243275;28;20024;-76
2022/01/31 16:27:47;;;;;;;155.25;74.10;;;;;;;;;;6256043;28;20071;-76
2022/01/31 16:30:49;;;;;;;158.95;68.47;;;;;;;;;;6238056;28;20555;-76
2022/01/31 16:33:49;;;;;;;147.35;66.03;;;;;;;;;;6229024;28;20147;-76
2022/01/31 16:36:49;;;;;;;161.37;70.70;;;;;;;;;;6248566;28;20389;-76
2022/01/31 16:39:50;;;;;;;128.43;57.23;;;;;;;;;;6250406;28;20263;-76
2022/01/31 16:42:50;;;;;;;123.13;57.00;;;;;;;;;;6246528;28;20363;-76
2022/01/31 16:45:52;;;;;;;125.63;51.22;;;;;;;;;;6249253;28;20020;-76
2022/01/31 16:48:52;;;;;;;;;;;;;;;;;;6260724;28;20377;-76
2022/01/31 16:51:53;;;;;;;136.98;56.97;;;;;;;;;;6246352;28;19920;-76
2022/01/31 16:54:53;;;;;;;130.63;55.00;;;;;;;;;;6266116;28;20111;-76
2022/01/31 16:57:54;;;;;;;119.78;62.63;;;;;;;;;;6246236;28;20673;-76
2022/01/31 17:00:55;;;;;;;112.60;40.78;;;;;;;;;;6237018;28;20035;-76
2022/01/31 17:03:55;;;;;;;92.18;42.28;;;;;;;;;;6225619;28;20021;-76
2022/01/31 17:06:55;;;;;;;120.25;50.53;;;;;;;;;;6261617;28;20032;-76
2022/01/31 17:09:56;;;;;;;108.50;48.10;;;;;;;;;;6258564;28;20013;-76
2022/01/31 17:12:56;;;;;;;135.43;56.33;;;;;;;;;;6259341;28;20255;-76
2022/01/31 17:15:56;;;;;;;94.65;50.08;;;;;;;;;;6266693;28;20333;-76
2022/01/31 17:18:57;;;;;;;93.03;42.10;;;;;;;;;;6266967;28;20546;-76
2022/01/31 17:21:57;;;;;;;107.10;46.58;;;;;;;;;;6267043;28;20334;-76
2022/01/31 17:24:57;;;;;;;118.33;47.13;;;;;;;;;;6267146;28;20036;-76
2022/01/31 17:27:58;;;;;;;141.82;58.17;;;;;;;;;;6237711;28;20708;-76
2022/01/31 17:30:58;;;;;;;119.72;52.10;;;;;;;;;;6248612;28;20041;-76
2022/01/31 17:33:58;;;;;;;105.95;45.58;;;;;;;;;;6240853;28;20377;-76
2022/01/31 17:36:58;;;;;;;99.40;41.10;;;;;;;;;;6242202;28;20132;-76
2022/01/31 17:39:58;;;;;;;112.82;47.42;;;;;;;;;;6223684;28;20631;-76
2022/01/31 17:43:00;;;;;;;123.57;49.07;;;;;;;;;;6241134;28;20074;-76
2022/01/31 17:46:01;;;;;;;112.93;45.67;;;;;;;;;;6227950;28;20288;-75
2022/01/31 17:49:01;;;;;;;131.82;46.45;;;;;;;;;;6229164;28;20112;-75
2022/01/31 17:52:01;;;;;;;111.88;45.67;;;;;;;;;;6254395;28;20018;-75
2022/01/31 17:55:02;;;;;;;97.95;41.20;;;;;;;;;;6252508;28;20024;-76
2022/01/31 17:58:03;;;;;;;115.28;45.05;;;;;;;;;;6244043;28;20031;-76
2022/01/31 18:01:05;;;;;;;101.10;45.15;;;;;;;;;;6264729;28;20025;-76
2022/01/31 18:04:05;;;;;;;101.60;42.85;;;;;;;;;;6244416;28;20029;-75
2022/01/31 18:07:05;;;;;;;93.18;40.83;;;;;;;;;;6237267;28;20036;-75
2022/01/31 18:10:06;;;;;;;117.65;44.72;;;;;;;;;;6253042;28;20024;-75
2022/01/31 18:13:08;;;;;;;101.03;43.42;;;;;;;;;;6229488;28;20053;-75
2022/01/31 18:16:08;;;;;;;112.72;45.03;;;;;;;;;;6249863;28;20024;-75
2022/01/31 18:19:08;;;;;;;144.73;59.03;;;;;;;;;;6262222;28;20103;-75